THY3YL LIBD-LTFM
Flight info
| Callsign | THY3YL |
|---|---|
| Flight time | N/A |
| Altitude | 35000 |
| Route | VURKE DCT PAPIZ DCT PINDO UM603 PEREN UN644 DIGTI UT162 DRAMO |
| Aircraft | A321/M-SDE3FGHIRWY/LB1 |
Departure
| Time | N/A |
|---|---|
| Airport | Bari Karol Wojtyła International Airport (LIBD) |
Arrival
| Time | 2026-05-04 21:25 |
|---|---|
| Airport | İstanbul Airport (LTFM) |
| Time | Latitude | Longitude | Altitude | Speed | Heading |
|---|---|---|---|---|---|
| 2026-05-04 20:57 | 40.96883 | 26.15663 | 36245 ft | 448 kts | 77° |
| 2026-05-04 20:58 | 40.97472 | 26.19708 | 35577 ft | 448 kts | 77° |
| 2026-05-04 20:58 | 40.98061 | 26.23758 | 34844 ft | 450 kts | 77° |
| 2026-05-04 20:58 | 40.98653 | 26.27832 | 34112 ft | 451 kts | 77° |
| 2026-05-04 20:58 | 40.99239 | 26.31879 | 33644 ft | 446 kts | 77° |
| 2026-05-04 20:59 | 40.99820 | 26.35895 | 33116 ft | 443 kts | 77° |
| 2026-05-04 20:59 | 41.00400 | 26.39878 | 32601 ft | 440 kts | 77° |
| 2026-05-04 20:59 | 41.00978 | 26.43840 | 32085 ft | 436 kts | 77° |
| 2026-05-04 20:59 | 41.01548 | 26.47771 | 31561 ft | 433 kts | 77° |
| 2026-05-04 21:00 | 41.02106 | 26.51672 | 31066 ft | 429 kts | 77° |
| 2026-05-04 21:00 | 41.02655 | 26.55538 | 30543 ft | 426 kts | 77° |
| 2026-05-04 21:00 | 41.03191 | 26.59375 | 30011 ft | 423 kts | 79° |
| 2026-05-04 21:00 | 41.03395 | 26.63202 | 29467 ft | 422 kts | 89° |
| 2026-05-04 21:01 | 41.03294 | 26.67078 | 28923 ft | 420 kts | 90° |
| 2026-05-04 21:01 | 41.03191 | 26.70921 | 28388 ft | 416 kts | 89° |
| 2026-05-04 21:01 | 41.03090 | 26.74739 | 27859 ft | 413 kts | 89° |
| 2026-05-04 21:01 | 41.02986 | 26.78521 | 27337 ft | 409 kts | 89° |
| 2026-05-04 21:02 | 41.02883 | 26.82268 | 26836 ft | 405 kts | 89° |
| 2026-05-04 21:02 | 41.02816 | 26.84729 | 26505 ft | 403 kts | 89° |
| 2026-05-04 21:02 | 41.02685 | 26.89658 | 25865 ft | 398 kts | 89° |
| 2026-05-04 21:02 | 41.02619 | 26.92071 | 25560 ft | 395 kts | 89° |
| 2026-05-04 21:03 | 41.02518 | 26.95692 | 25091 ft | 392 kts | 89° |
| 2026-05-04 21:03 | 41.02414 | 26.99284 | 24632 ft | 389 kts | 89° |
| 2026-05-04 21:03 | 41.02308 | 27.02849 | 24185 ft | 386 kts | 89° |
| 2026-05-04 21:03 | 41.02204 | 27.06392 | 23732 ft | 384 kts | 89° |
| 2026-05-04 21:04 | 41.02099 | 27.09909 | 23265 ft | 381 kts | 89° |
| 2026-05-04 21:04 | 41.01995 | 27.13407 | 22806 ft | 379 kts | 89° |
| 2026-05-04 21:04 | 41.01889 | 27.16884 | 22346 ft | 376 kts | 89° |
| 2026-05-04 21:04 | 41.01783 | 27.20336 | 21852 ft | 374 kts | 89° |
| 2026-05-04 21:05 | 41.01678 | 27.23771 | 21373 ft | 372 kts | 89° |
| 2026-05-04 21:05 | 41.01572 | 27.27182 | 20876 ft | 370 kts | 89° |
| 2026-05-04 21:05 | 41.01467 | 27.30577 | 20381 ft | 368 kts | 89° |
| 2026-05-04 21:05 | 41.01361 | 27.33945 | 19890 ft | 365 kts | 89° |
| 2026-05-04 21:06 | 41.01257 | 27.37247 | 19381 ft | 363 kts | 89° |
| 2026-05-04 21:06 | 41.01152 | 27.40577 | 18891 ft | 360 kts | 89° |
| 2026-05-04 21:06 | 41.01049 | 27.43875 | 18399 ft | 357 kts | 89° |
| 2026-05-04 21:06 | 41.00945 | 27.47147 | 17907 ft | 354 kts | 89° |
| 2026-05-04 21:07 | 41.00839 | 27.50392 | 17426 ft | 352 kts | 90° |
| 2026-05-04 21:07 | 41.00730 | 27.53616 | 16935 ft | 349 kts | 90° |
| 2026-05-04 21:07 | 41.00622 | 27.56807 | 16448 ft | 346 kts | 89° |
| 2026-05-04 21:07 | 41.00515 | 27.59970 | 15976 ft | 343 kts | 89° |
| 2026-05-04 21:08 | 41.00407 | 27.63110 | 15502 ft | 340 kts | 89° |
| 2026-05-04 21:08 | 41.00297 | 27.66219 | 15029 ft | 337 kts | 89° |
| 2026-05-04 21:08 | 41.00188 | 27.69301 | 14566 ft | 334 kts | 89° |
| 2026-05-04 21:08 | 41.00081 | 27.72356 | 14102 ft | 331 kts | 89° |
| 2026-05-04 21:09 | 40.99975 | 27.75387 | 13613 ft | 329 kts | 89° |
| 2026-05-04 21:09 | 40.99870 | 27.78397 | 13142 ft | 326 kts | 89° |
| 2026-05-04 21:09 | 40.99762 | 27.81387 | 12694 ft | 323 kts | 89° |
| 2026-05-04 21:09 | 40.99657 | 27.84302 | 12250 ft | 321 kts | 89° |
| 2026-05-04 21:10 | 40.99553 | 27.87237 | 11814 ft | 318 kts | 89° |
| 2026-05-04 21:10 | 40.99445 | 27.90148 | 11379 ft | 315 kts | 89° |
| 2026-05-04 21:10 | 40.99338 | 27.93035 | 10949 ft | 313 kts | 89° |
| 2026-05-04 21:10 | 40.99231 | 27.95898 | 10522 ft | 310 kts | 90° |
| 2026-05-04 21:11 | 40.99125 | 27.98735 | 10220 ft | 304 kts | 90° |
| 2026-05-04 21:11 | 40.99020 | 28.01480 | 10078 ft | 293 kts | 90° |
| 2026-05-04 21:11 | 40.98917 | 28.04144 | 9849 ft | 286 kts | 90° |
| 2026-05-04 21:11 | 40.98816 | 28.06770 | 9557 ft | 286 kts | 90° |
| 2026-05-04 21:12 | 40.98718 | 28.09404 | 9120 ft | 287 kts | 90° |
| 2026-05-04 21:12 | 40.98623 | 28.12052 | 8693 ft | 288 kts | 90° |
| 2026-05-04 21:12 | 40.98525 | 28.14689 | 8288 ft | 287 kts | 90° |
| 2026-05-04 21:12 | 40.98425 | 28.17310 | 7965 ft | 283 kts | 90° |
| 2026-05-04 21:13 | 40.98321 | 28.19915 | 7388 ft | 280 kts | 90° |
| 2026-05-04 21:13 | 40.98215 | 28.22488 | 6917 ft | 280 kts | 90° |
| 2026-05-04 21:13 | 40.98111 | 28.25048 | 6536 ft | 279 kts | 90° |
| 2026-05-04 21:13 | 40.98012 | 28.27574 | 6204 ft | 276 kts | 90° |
| 2026-05-04 21:14 | 40.97911 | 28.30101 | 5852 ft | 274 kts | 90° |
| 2026-05-04 21:14 | 40.97810 | 28.32605 | 5608 ft | 268 kts | 90° |
| 2026-05-04 21:14 | 40.97711 | 28.35021 | 5473 ft | 258 kts | 90° |
| 2026-05-04 21:14 | 40.97615 | 28.37346 | 5347 ft | 248 kts | 90° |
| 2026-05-04 21:15 | 40.97532 | 28.39591 | 5159 ft | 241 kts | 89° |
| 2026-05-04 21:15 | 40.97515 | 28.41768 | 5035 ft | 235 kts | 87° |
| 2026-05-04 21:15 | 40.97529 | 28.43924 | 5025 ft | 235 kts | 86° |
| 2026-05-04 21:15 | 40.97551 | 28.46082 | 5026 ft | 235 kts | 86° |
| 2026-05-04 21:16 | 40.97571 | 28.48245 | 5022 ft | 235 kts | 86° |
| 2026-05-04 21:16 | 40.97583 | 28.50406 | 5026 ft | 235 kts | 87° |
| 2026-05-04 21:16 | 40.97590 | 28.52567 | 5023 ft | 235 kts | 87° |
| 2026-05-04 21:16 | 40.97594 | 28.54730 | 5024 ft | 235 kts | 87° |
| 2026-05-04 21:17 | 40.97598 | 28.56892 | 5028 ft | 235 kts | 87° |
| 2026-05-04 21:17 | 40.97604 | 28.59025 | 5027 ft | 235 kts | 87° |
| 2026-05-04 21:17 | 40.97605 | 28.61190 | 5041 ft | 235 kts | 88° |
| 2026-05-04 21:17 | 40.97604 | 28.63354 | 5025 ft | 235 kts | 87° |
| 2026-05-04 21:18 | 40.97605 | 28.65512 | 5013 ft | 235 kts | 87° |
| 2026-05-04 21:18 | 40.97624 | 28.67635 | 5000 ft | 225 kts | 82° |
| 2026-05-04 21:18 | 40.98013 | 28.69600 | 5015 ft | 220 kts | 63° |
| 2026-05-04 21:18 | 40.98847 | 28.71268 | 5031 ft | 217 kts | 45° |
| 2026-05-04 21:19 | 41.00007 | 28.72474 | 5094 ft | 206 kts | 27° |
| 2026-05-04 21:19 | 41.01317 | 28.73123 | 5013 ft | 199 kts | 11° |
| 2026-05-04 21:19 | 41.02685 | 28.73212 | 4877 ft | 197 kts | 358° |
| 2026-05-04 21:19 | 41.04053 | 28.73185 | 4611 ft | 197 kts | 360° |
| 2026-05-04 21:20 | 41.05419 | 28.73173 | 4326 ft | 196 kts | 359° |
| 2026-05-04 21:20 | 41.06776 | 28.73151 | 4072 ft | 194 kts | 359° |
| 2026-05-04 21:20 | 41.08126 | 28.73125 | 3818 ft | 194 kts | 359° |
| 2026-05-04 21:20 | 41.09469 | 28.73099 | 3554 ft | 193 kts | 359° |
| 2026-05-04 21:21 | 41.10813 | 28.73074 | 3320 ft | 193 kts | 359° |
| 2026-05-04 21:21 | 41.12154 | 28.73049 | 3059 ft | 191 kts | 359° |
| 2026-05-04 21:21 | 41.13433 | 28.73025 | 2875 ft | 182 kts | 360° |
| 2026-05-04 21:21 | 41.14684 | 28.72999 | 2550 ft | 177 kts | 1° |
| 2026-05-04 21:22 | 41.15892 | 28.72975 | 2309 ft | 169 kts | 1° |
| 2026-05-04 21:22 | 41.17021 | 28.72955 | 2137 ft | 159 kts | 1° |
| 2026-05-04 21:22 | 41.18107 | 28.72933 | 1891 ft | 152 kts | 359° |
| 2026-05-04 21:22 | 41.19154 | 28.72913 | 1710 ft | 147 kts | 358° |
| 2026-05-04 21:23 | 41.20161 | 28.72895 | 1513 ft | 143 kts | 358° |
| 2026-05-04 21:23 | 41.21153 | 28.72874 | 1322 ft | 142 kts | 358° |
| 2026-05-04 21:23 | 41.22137 | 28.72856 | 1116 ft | 141 kts | 358° |
| 2026-05-04 21:23 | 41.23119 | 28.72838 | 947 ft | 141 kts | 359° |
| 2026-05-04 21:24 | 41.24097 | 28.72820 | 758 ft | 141 kts | 358° |
| 2026-05-04 21:24 | 41.25076 | 28.72799 | 582 ft | 141 kts | 359° |
| 2026-05-04 21:24 | 41.26054 | 28.72780 | 404 ft | 141 kts | 359° |
| 2026-05-04 21:24 | 41.26976 | 28.72759 | 331 ft | 119 kts | 359° |
| 2026-05-04 21:25 | 41.27502 | 28.72748 | 333 ft | 34 kts | 359° |
| 2026-05-04 21:25 | 41.27736 | 28.72743 | 334 ft | 33 kts | 359° |
| 2026-05-04 21:25 | 41.27951 | 28.72766 | 331 ft | 27 kts | 17° |
| 2026-05-04 21:25 | 41.28082 | 28.72847 | 332 ft | 19 kts | 28° |
| 2026-05-04 21:26 | 41.28132 | 28.72920 | 334 ft | 9 kts | 91° |
| 2026-05-04 21:26 | 41.28081 | 28.72961 | 332 ft | 10 kts | 178° |
| 2026-05-04 21:26 | 41.27999 | 28.72962 | 332 ft | 13 kts | 179° |
| 2026-05-04 21:26 | 41.27902 | 28.72964 | 334 ft | 14 kts | 179° |
| 2026-05-04 21:27 | 41.27814 | 28.72967 | 333 ft | 14 kts | 179° |
| 2026-05-04 21:27 | 41.27712 | 28.72969 | 333 ft | 16 kts | 179° |
| 2026-05-04 21:27 | 41.27626 | 28.72972 | 333 ft | 10 kts | 179° |
| 2026-05-04 21:27 | 41.27547 | 28.72972 | 334 ft | 12 kts | 179° |
| 2026-05-04 21:28 | 41.27453 | 28.72974 | 334 ft | 13 kts | 178° |
| 2026-05-04 21:28 | 41.27388 | 28.73026 | 331 ft | 12 kts | 107° |
| 2026-05-04 21:28 | 41.27391 | 28.73150 | 332 ft | 15 kts | 87° |
| 2026-05-04 21:28 | 41.27394 | 28.73295 | 334 ft | 17 kts | 89° |
| 2026-05-04 21:29 | 41.27396 | 28.73461 | 334 ft | 19 kts | 89° |
| 2026-05-04 21:29 | 41.27398 | 28.73599 | 334 ft | 15 kts | 89° |
| 2026-05-04 21:29 | 41.27400 | 28.73747 | 334 ft | 17 kts | 89° |
| 2026-05-04 21:29 | 41.27402 | 28.73914 | 334 ft | 19 kts | 89° |
| 2026-05-04 21:30 | 41.27404 | 28.74097 | 334 ft | 21 kts | 89° |
| 2026-05-04 21:30 | 41.27407 | 28.74293 | 331 ft | 22 kts | 89° |
| 2026-05-04 21:30 | 41.27410 | 28.74485 | 334 ft | 17 kts | 88° |
| 2026-05-04 21:30 | 41.27388 | 28.74588 | 333 ft | 12 kts | 146° |
| 2026-05-04 21:31 | 41.27186 | 28.74602 | 333 ft | 17 kts | 179° |
| 2026-05-04 21:31 | 41.27063 | 28.74604 | 331 ft | 17 kts | 178° |
| 2026-05-04 21:31 | 41.26946 | 28.74607 | 332 ft | 17 kts | 179° |
| 2026-05-04 21:32 | 41.26831 | 28.74610 | 333 ft | 17 kts | 179° |
| 2026-05-04 21:32 | 41.26706 | 28.74613 | 334 ft | 17 kts | 179° |
| 2026-05-04 21:32 | 41.26597 | 28.74615 | 334 ft | 14 kts | 179° |
| 2026-05-04 21:32 | 41.26500 | 28.74596 | 332 ft | 15 kts | 198° |
| 2026-05-04 21:33 | 41.26413 | 28.74574 | 331 ft | 10 kts | 184° |
| 2026-05-04 21:33 | 41.26366 | 28.74573 | 334 ft | 3 kts | 179° |
| 2026-05-04 21:33 | 41.26362 | 28.74573 | 334 ft | 0 kts | 179° |